Catlett — AESZ — position and weather

sailwx.info

Track history (hours):
 
Tides and Currents Weather Stations Pressure Air Temp Water Temp Dewpoint Dewpoint Depression Visibility Wind Speed Wind Dir Waves Ship Positions

Catlett

Last reported at 2018-Jun-24 12:44 UTC. Time now 2018-Jun-25 15:56 UTC.
Position N 37°16' W 076°01'.

Length 19 m.

Type: Dredging. MMSI: 368926258.

Date/timePositionNaut miles runAvg speedWind from/ knotsBaromVisibWave heightAir tempDewpointWater temp
2018-Jun-24 12:44N 37°16' W 076°01'  
2018-Jun-20 13:19N 37°33' W 076°03'1 0.5
2018-Jun-20 11:52N 37°32' W 076°02'812.8
2018-Jun-20 11:16N 37°25' W 076°04'52 1.2
2018-Jun-18 14:03N 38°16' W 076°18'131.4
2018-Jun-18 14:00N 38°17' W 076°19'2730.2
2018-Jun-18 13:06N 38°44' W 076°26'1630.1
2018-Jun-18 12:35N 38°59' W 076°23'328.7
2018-Jun-18 12:29N 39°02' W 076°23'1326.3
2018-Jun-18 12:01N 39°13' W 076°31'2 3.9
2018-Jun-18 11:24N 39°15' W 076°29'1 1.7
2018-Jun-18 11:00N 39°14' W 076°30'4 8.5
2018-Jun-18 10:30N 39°16' W 076°35'0 0.0
2018-Jun-18 10:00N 39°16' W 076°35'0 0.0
2018-Jun-18 09:30N 39°16' W 076°35'0 0.0
2018-Jun-18 09:00N 39°16' W 076°35'0 0.0
2018-Jun-18 08:30N 39°16' W 076°35'0 0.0
2018-Jun-18 08:00N 39°16' W 076°35'0 0.0
2018-Jun-18 07:30N 39°16' W 076°35'0 0.0
2018-Jun-18 07:00N 39°16' W 076°35'0 0.0
2018-Jun-18 06:30N 39°16' W 076°35'0 0.0
2018-Jun-18 06:00N 39°16' W 076°35'0 0.0
2018-Jun-18 05:30N 39°16' W 076°35'0 0.0
2018-Jun-18 05:00N 39°16' W 076°35'0 0.0
2018-Jun-18 04:30N 39°16' W 076°35'0 0.0
2018-Jun-18 04:00N 39°16' W 076°35'0 0.0
2018-Jun-18 03:30N 39°16' W 076°35'0 0.0
2018-Jun-18 03:00N 39°16' W 076°35'0 0.0
2018-Jun-18 02:30N 39°16' W 076°35'0 0.0
2018-Jun-18 02:00N 39°16' W 076°35'0 0.0
2018-Jun-18 01:30N 39°16' W 076°35'0 0.0
2018-Jun-18 01:00N 39°16' W 076°35'0 0.0
2018-Jun-18 00:30N 39°16' W 076°35'0 0.0
2018-Jun-18 00:00N 39°16' W 076°35'0 0.0
2018-Jun-17 23:30N 39°16' W 076°35'0 0.0
2018-Jun-17 23:00N 39°16' W 076°35'0 0.0
2018-Jun-17 22:30N 39°16' W 076°35'0 0.0
2018-Jun-17 22:00N 39°16' W 076°35'0 0.0
2018-Jun-17 21:30N 39°16' W 076°35'0 0.0
2018-Jun-17 21:00N 39°16' W 076°35'0 0.0
2018-Jun-17 20:30N 39°16' W 076°35'0 0.0
2018-Jun-17 20:00N 39°16' W 076°35'0 0.0
2018-Jun-17 19:30N 39°16' W 076°35'0 0.0
2018-Jun-17 19:00N 39°16' W 076°35'0 0.0
2018-Jun-17 18:30N 39°16' W 076°35'0 0.0
2018-Jun-17 18:00N 39°16' W 076°35'0 0.0
2018-Jun-17 17:30N 39°16' W 076°35'0 0.0
2018-Jun-17 17:00N 39°16' W 076°35'0 0.0
2018-Jun-17 16:30N 39°16' W 076°35'0 0.0
2018-Jun-17 16:00N 39°16' W 076°35'0 0.0
2018-Jun-17 15:30N 39°16' W 076°35'0 0.0
2018-Jun-17 15:00N 39°16' W 076°35'0 0.0
2018-Jun-17 14:30N 39°16' W 076°35'0 0.0
2018-Jun-17 14:00N 39°16' W 076°35'0 0.0
2018-Jun-17 13:30N 39°16' W 076°35'0 0.0
2018-Jun-17 13:00N 39°16' W 076°35'0 0.0
2018-Jun-17 12:30N 39°16' W 076°35'0 0.0
2018-Jun-17 12:00N 39°16' W 076°35'0 0.0
2018-Jun-17 11:30N 39°16' W 076°35'0 0.0
2018-Jun-17 11:00N 39°16' W 076°35'0 0.0
2018-Jun-17 10:30N 39°16' W 076°35'0 0.0
2018-Jun-17 10:00N 39°16' W 076°35'0 0.0
2018-Jun-17 09:30N 39°16' W 076°35'0 0.0
2018-Jun-17 09:00N 39°16' W 076°35'0 0.0
2018-Jun-17 08:30N 39°16' W 076°35'0 0.0
2018-Jun-17 08:00N 39°16' W 076°35'0 0.0
2018-Jun-17 07:30N 39°16' W 076°35'0 0.0
2018-Jun-17 07:00N 39°16' W 076°35'0 0.0
2018-Jun-17 06:30N 39°16' W 076°35'0 0.0
2018-Jun-17 06:00N 39°16' W 076°35'0 0.0
2018-Jun-17 05:30N 39°16' W 076°35'0 0.0
2018-Jun-17 05:00N 39°16' W 076°35'0 0.0
2018-Jun-17 04:30N 39°16' W 076°35'0 0.0
2018-Jun-17 04:00N 39°16' W 076°35'0 0.0
2018-Jun-17 03:30N 39°16' W 076°35'0 0.0
2018-Jun-17 03:00N 39°16' W 076°35'0 0.0
2018-Jun-17 02:30N 39°16' W 076°35'0 0.0
2018-Jun-17 02:00N 39°16' W 076°35'0 0.0
2018-Jun-17 01:30N 39°16' W 076°35'0 0.0
2018-Jun-17 01:00N 39°16' W 076°35'0 0.0
2018-Jun-17 00:30N 39°16' W 076°35'0 0.0
2018-Jun-17 00:00N 39°16' W 076°35'0 0.0
2018-Jun-16 23:30N 39°16' W 076°35'0 0.0
2018-Jun-16 23:00N 39°16' W 076°35'0 0.0
2018-Jun-16 22:30N 39°16' W 076°35'0 0.0
2018-Jun-16 22:00N 39°16' W 076°35'0 0.0
2018-Jun-16 21:30N 39°16' W 076°35'0 0.0
2018-Jun-16 21:00N 39°16' W 076°35'0 0.0
2018-Jun-16 20:30N 39°16' W 076°35'0 0.0
2018-Jun-16 20:00N 39°16' W 076°35'0 0.0
2018-Jun-16 19:30N 39°16' W 076°35'0 0.0
2018-Jun-16 19:00N 39°16' W 076°35'0 0.0
2018-Jun-16 18:30N 39°16' W 076°35'0 0.0
2018-Jun-16 18:00N 39°16' W 076°35'0 0.0
2018-Jun-16 17:30N 39°16' W 076°35'0 0.0
2018-Jun-16 17:00N 39°16' W 076°35'0 0.0
2018-Jun-16 16:30N 39°16' W 076°35'0 0.0
2018-Jun-16 16:00N 39°16' W 076°35'0 0.0
2018-Jun-16 15:30N 39°16' W 076°35'0 0.0
2018-Jun-16 15:00N 39°16' W 076°35'0 0.0
2018-Jun-16 14:30N 39°16' W 076°35'0 0.0
2018-Jun-16 14:00N 39°16' W 076°35'0 0.0
2018-Jun-16 13:30N 39°16' W 076°35'0 0.0
2018-Jun-16 13:00N 39°16' W 076°35'0 0.0
2018-Jun-16 12:30N 39°16' W 076°35'0 0.0
2018-Jun-16 12:00N 39°16' W 076°35'0 0.0
2018-Jun-16 11:30N 39°16' W 076°35'0 0.0
2018-Jun-16 11:00N 39°16' W 076°35'0 0.0
2018-Jun-16 10:30N 39°16' W 076°35'0 0.0
2018-Jun-16 10:00N 39°16' W 076°35'0 0.0
2018-Jun-16 09:30N 39°16' W 076°35'0 0.0
2018-Jun-16 09:00N 39°16' W 076°35'0 0.0
2018-Jun-16 08:30N 39°16' W 076°35'0 0.0
2018-Jun-16 08:00N 39°16' W 076°35'0 0.0
2018-Jun-16 07:30N 39°16' W 076°35'0 0.0
2018-Jun-16 07:00N 39°16' W 076°35'0 0.0
2018-Jun-16 06:30N 39°16' W 076°35'0 0.0
2018-Jun-16 06:00N 39°16' W 076°35'0 0.0
2018-Jun-16 05:30N 39°16' W 076°35'0 0.0
2018-Jun-16 05:00N 39°16' W 076°35'0 0.0
2018-Jun-16 04:30N 39°16' W 076°35'0 0.0
2018-Jun-16 04:00N 39°16' W 076°35'0 0.0
2018-Jun-16 03:30N 39°16' W 076°35'0 0.0
2018-Jun-16 03:00N 39°16' W 076°35'0 0.0
2018-Jun-16 02:30N 39°16' W 076°35'0 0.0
2018-Jun-16 02:00N 39°16' W 076°35'0 0.0
2018-Jun-16 01:30N 39°16' W 076°35'0 0.0
2018-Jun-16 01:00N 39°16' W 076°35'0 0.0
2018-Jun-16 00:30N 39°16' W 076°35'0 0.0
2018-Jun-16 00:00N 39°16' W 076°35'0 0.0
2018-Jun-15 23:30N 39°16' W 076°35'0 0.0
2018-Jun-15 23:00N 39°16' W 076°35'0 0.0
2018-Jun-15 22:30N 39°16' W 076°35'0 0.0
2018-Jun-15 22:00N 39°16' W 076°35'0 0.0
2018-Jun-15 21:30N 39°16' W 076°35'0 0.0
2018-Jun-15 21:00N 39°16' W 076°35'0 0.0
2018-Jun-15 20:30N 39°16' W 076°35'0 0.0
2018-Jun-15 20:00N 39°16' W 076°35'0 0.0
2018-Jun-15 19:30N 39°16' W 076°35'0 0.0
2018-Jun-15 19:00N 39°16' W 076°35'0 0.0
2018-Jun-15 18:30N 39°16' W 076°35'0 0.0
2018-Jun-15 18:00N 39°16' W 076°35'0 0.0
2018-Jun-15 17:30N 39°16' W 076°35'0 0.0
2018-Jun-15 17:00N 39°16' W 076°35'0 0.0
2018-Jun-15 16:30N 39°16' W 076°35'0 0.0
2018-Jun-15 16:00N 39°16' W 076°35'0 0.0
2018-Jun-15 15:30N 39°16' W 076°35'0 0.0
2018-Jun-15 15:00N 39°16' W 076°35'0 0.0
2018-Jun-15 14:30N 39°16' W 076°35'0 0.0
2018-Jun-15 14:00N 39°16' W 076°35'0 0.0
2018-Jun-15 13:30N 39°16' W 076°35'0 0.0
2018-Jun-15 13:00N 39°16' W 076°35'0 0.0
2018-Jun-15 12:30N 39°16' W 076°35'0 0.0
2018-Jun-15 12:00N 39°16' W 076°35'0 0.0
2018-Jun-15 11:30N 39°16' W 076°35'0 0.0
2018-Jun-15 11:00N 39°16' W 076°35'0 0.0
2018-Jun-15 10:30N 39°16' W 076°35'0 0.0
2018-Jun-15 10:00N 39°16' W 076°35'0 0.0
2018-Jun-15 09:30N 39°16' W 076°35'0 0.0
2018-Jun-15 09:00N 39°16' W 076°35'0 0.0
2018-Jun-15 08:30N 39°16' W 076°35'0 0.0
2018-Jun-15 08:00N 39°16' W 076°35'0 0.0
2018-Jun-15 07:30N 39°16' W 076°35'0 0.0
2018-Jun-15 07:00N 39°16' W 076°35'0 0.0
2018-Jun-15 06:30N 39°16' W 076°35'0 0.0
2018-Jun-15 06:00N 39°16' W 076°35'0 0.0
2018-Jun-15 05:30N 39°16' W 076°35'0 0.0
2018-Jun-15 05:00N 39°16' W 076°35'0 0.0
2018-Jun-15 04:30N 39°16' W 076°35'0 0.0
2018-Jun-15 04:00N 39°16' W 076°35'0 0.0
2018-Jun-15 03:30N 39°16' W 076°35'0 0.0
2018-Jun-15 03:00N 39°16' W 076°35'0 0.0
2018-Jun-15 02:30N 39°16' W 076°35'0 0.0
2018-Jun-15 02:00N 39°16' W 076°35'0 0.0
2018-Jun-15 01:30N 39°16' W 076°35'0 0.0
2018-Jun-15 01:00N 39°16' W 076°35'0 0.0
2018-Jun-15 00:30N 39°16' W 076°35'0 0.0
2018-Jun-15 00:00N 39°16' W 076°35'0 0.0
2018-Jun-14 23:30N 39°16' W 076°35'0 0.0
2018-Jun-14 23:00N 39°16' W 076°35'0 0.0
2018-Jun-14 22:30N 39°16' W 076°35'0 0.0
2018-Jun-14 22:00N 39°16' W 076°35'0 0.0
2018-Jun-14 21:30N 39°16' W 076°35'0 0.0
2018-Jun-14 21:00N 39°16' W 076°35'0 0.0
2018-Jun-14 20:30N 39°16' W 076°35'0 0.0
2018-Jun-14 20:00N 39°16' W 076°35'0 0.0
2018-Jun-14 19:30N 39°16' W 076°35'0 0.0
2018-Jun-14 19:00N 39°16' W 076°35'0 0.0
2018-Jun-14 18:30N 39°16' W 076°35'0 0.0
2018-Jun-14 18:00N 39°16' W 076°35'0 0.0
2018-Jun-14 17:30N 39°16' W 076°35'0 0.0
2018-Jun-14 17:00N 39°16' W 076°35'0 0.0
2018-Jun-14 16:30N 39°16' W 076°35'0 0.0
2018-Jun-14 16:00N 39°16' W 076°35'0 0.0
2018-Jun-14 15:30N 39°16' W 076°35'0 0.0
2018-Jun-14 15:00N 39°16' W 076°35'0 0.0
2018-Jun-14 14:30N 39°16' W 076°35'0 0.0
2018-Jun-14 14:00N 39°16' W 076°35'0 0.0
2018-Jun-14 13:30N 39°16' W 076°35'0 0.0
2018-Jun-14 13:00N 39°16' W 076°35'  
Track history (hours):
 
Tides and Currents Weather Stations Pressure Air Temp Water Temp Dewpoint Dewpoint Depression Visibility Wind Speed Wind Dir Waves Ship Positions

Catlett

Last reported at 2018-Jun-24 12:44 UTC. Time now 2018-Jun-25 15:56 UTC.
Position N 37°16' W 076°01'.

Length 19 m.

Type: Dredging. MMSI: 368926258.

Date/timePositionNaut miles runAvg speedWind from/ knotsBaromVisibWave heightAir tempDewpointWater temp
2018-Jun-24 12:44N 37°16' W 076°01'  
2018-Jun-20 13:19N 37°33' W 076°03'1 0.5
2018-Jun-20 11:52N 37°32' W 076°02'812.8
2018-Jun-20 11:16N 37°25' W 076°04'52 1.2
2018-Jun-18 14:03N 38°16' W 076°18'131.4
2018-Jun-18 14:00N 38°17' W 076°19'2730.2
2018-Jun-18 13:06N 38°44' W 076°26'1630.1
2018-Jun-18 12:35N 38°59' W 076°23'328.7
2018-Jun-18 12:29N 39°02' W 076°23'1326.3
2018-Jun-18 12:01N 39°13' W 076°31'2 3.9
2018-Jun-18 11:24N 39°15' W 076°29'1 1.7
2018-Jun-18 11:00N 39°14' W 076°30'4 8.5
2018-Jun-18 10:30N 39°16' W 076°35'0 0.0
2018-Jun-18 10:00N 39°16' W 076°35'0 0.0
2018-Jun-18 09:30N 39°16' W 076°35'0 0.0
2018-Jun-18 09:00N 39°16' W 076°35'0 0.0
2018-Jun-18 08:30N 39°16' W 076°35'0 0.0
2018-Jun-18 08:00N 39°16' W 076°35'0 0.0
2018-Jun-18 07:30N 39°16' W 076°35'0 0.0
2018-Jun-18 07:00N 39°16' W 076°35'0 0.0
2018-Jun-18 06:30N 39°16' W 076°35'0 0.0
2018-Jun-18 06:00N 39°16' W 076°35'0 0.0
2018-Jun-18 05:30N 39°16' W 076°35'0 0.0
2018-Jun-18 05:00N 39°16' W 076°35'0 0.0
2018-Jun-18 04:30N 39°16' W 076°35'0 0.0
2018-Jun-18 04:00N 39°16' W 076°35'0 0.0
2018-Jun-18 03:30N 39°16' W 076°35'0 0.0
2018-Jun-18 03:00N 39°16' W 076°35'0 0.0
2018-Jun-18 02:30N 39°16' W 076°35'0 0.0
2018-Jun-18 02:00N 39°16' W 076°35'0 0.0
2018-Jun-18 01:30N 39°16' W 076°35'0 0.0
2018-Jun-18 01:00N 39°16' W 076°35'0 0.0
2018-Jun-18 00:30N 39°16' W 076°35'0 0.0
2018-Jun-18 00:00N 39°16' W 076°35'0 0.0
2018-Jun-17 23:30N 39°16' W 076°35'0 0.0
2018-Jun-17 23:00N 39°16' W 076°35'0 0.0
2018-Jun-17 22:30N 39°16' W 076°35'0 0.0
2018-Jun-17 22:00N 39°16' W 076°35'0 0.0
2018-Jun-17 21:30N 39°16' W 076°35'0 0.0
2018-Jun-17 21:00N 39°16' W 076°35'0 0.0
2018-Jun-17 20:30N 39°16' W 076°35'0 0.0
2018-Jun-17 20:00N 39°16' W 076°35'0 0.0
2018-Jun-17 19:30N 39°16' W 076°35'0 0.0
2018-Jun-17 19:00N 39°16' W 076°35'0 0.0
2018-Jun-17 18:30N 39°16' W 076°35'0 0.0
2018-Jun-17 18:00N 39°16' W 076°35'0 0.0
2018-Jun-17 17:30N 39°16' W 076°35'0 0.0
2018-Jun-17 17:00N 39°16' W 076°35'0 0.0
2018-Jun-17 16:30N 39°16' W 076°35'0 0.0
2018-Jun-17 16:00N 39°16' W 076°35'0 0.0
2018-Jun-17 15:30N 39°16' W 076°35'0 0.0
2018-Jun-17 15:00N 39°16' W 076°35'0 0.0
2018-Jun-17 14:30N 39°16' W 076°35'0 0.0
2018-Jun-17 14:00N 39°16' W 076°35'0 0.0
2018-Jun-17 13:30N 39°16' W 076°35'0 0.0
2018-Jun-17 13:00N 39°16' W 076°35'0 0.0
2018-Jun-17 12:30N 39°16' W 076°35'0 0.0
2018-Jun-17 12:00N 39°16' W 076°35'0 0.0
2018-Jun-17 11:30N 39°16' W 076°35'0 0.0
2018-Jun-17 11:00N 39°16' W 076°35'0 0.0
2018-Jun-17 10:30N 39°16' W 076°35'0 0.0
2018-Jun-17 10:00N 39°16' W 076°35'0 0.0
2018-Jun-17 09:30N 39°16' W 076°35'0 0.0
2018-Jun-17 09:00N 39°16' W 076°35'0 0.0
2018-Jun-17 08:30N 39°16' W 076°35'0 0.0
2018-Jun-17 08:00N 39°16' W 076°35'0 0.0
2018-Jun-17 07:30N 39°16' W 076°35'0 0.0
2018-Jun-17 07:00N 39°16' W 076°35'0 0.0
2018-Jun-17 06:30N 39°16' W 076°35'0 0.0
2018-Jun-17 06:00N 39°16' W 076°35'0 0.0
2018-Jun-17 05:30N 39°16' W 076°35'0 0.0
2018-Jun-17 05:00N 39°16' W 076°35'0 0.0
2018-Jun-17 04:30N 39°16' W 076°35'0 0.0
2018-Jun-17 04:00N 39°16' W 076°35'0 0.0
2018-Jun-17 03:30N 39°16' W 076°35'0 0.0
2018-Jun-17 03:00N 39°16' W 076°35'0 0.0
2018-Jun-17 02:30N 39°16' W 076°35'0 0.0
2018-Jun-17 02:00N 39°16' W 076°35'0 0.0
2018-Jun-17 01:30N 39°16' W 076°35'0 0.0
2018-Jun-17 01:00N 39°16' W 076°35'0 0.0
2018-Jun-17 00:30N 39°16' W 076°35'0 0.0
2018-Jun-17 00:00N 39°16' W 076°35'0 0.0
2018-Jun-16 23:30N 39°16' W 076°35'0 0.0
2018-Jun-16 23:00N 39°16' W 076°35'0 0.0
2018-Jun-16 22:30N 39°16' W 076°35'0 0.0
2018-Jun-16 22:00N 39°16' W 076°35'0 0.0
2018-Jun-16 21:30N 39°16' W 076°35'0 0.0
2018-Jun-16 21:00N 39°16' W 076°35'0 0.0
2018-Jun-16 20:30N 39°16' W 076°35'0 0.0
2018-Jun-16 20:00N 39°16' W 076°35'0 0.0
2018-Jun-16 19:30N 39°16' W 076°35'0 0.0
2018-Jun-16 19:00N 39°16' W 076°35'0 0.0
2018-Jun-16 18:30N 39°16' W 076°35'0 0.0
2018-Jun-16 18:00N 39°16' W 076°35'0 0.0
2018-Jun-16 17:30N 39°16' W 076°35'0 0.0
2018-Jun-16 17:00N 39°16' W 076°35'0 0.0
2018-Jun-16 16:30N 39°16' W 076°35'0 0.0
2018-Jun-16 16:00N 39°16' W 076°35'0 0.0
2018-Jun-16 15:30N 39°16' W 076°35'0 0.0
2018-Jun-16 15:00N 39°16' W 076°35'0 0.0
2018-Jun-16 14:30N 39°16' W 076°35'0 0.0
2018-Jun-16 14:00N 39°16' W 076°35'0 0.0
2018-Jun-16 13:30N 39°16' W 076°35'0 0.0
2018-Jun-16 13:00N 39°16' W 076°35'0 0.0
2018-Jun-16 12:30N 39°16' W 076°35'0 0.0
2018-Jun-16 12:00N 39°16' W 076°35'0 0.0
2018-Jun-16 11:30N 39°16' W 076°35'0 0.0
2018-Jun-16 11:00N 39°16' W 076°35'0 0.0
2018-Jun-16 10:30N 39°16' W 076°35'0 0.0
2018-Jun-16 10:00N 39°16' W 076°35'0 0.0
2018-Jun-16 09:30N 39°16' W 076°35'0 0.0
2018-Jun-16 09:00N 39°16' W 076°35'0 0.0
2018-Jun-16 08:30N 39°16' W 076°35'0 0.0
2018-Jun-16 08:00N 39°16' W 076°35'0 0.0
2018-Jun-16 07:30N 39°16' W 076°35'0 0.0
2018-Jun-16 07:00N 39°16' W 076°35'0 0.0
2018-Jun-16 06:30N 39°16' W 076°35'0 0.0
2018-Jun-16 06:00N 39°16' W 076°35'0 0.0
2018-Jun-16 05:30N 39°16' W 076°35'0 0.0
2018-Jun-16 05:00N 39°16' W 076°35'0 0.0
2018-Jun-16 04:30N 39°16' W 076°35'0 0.0
2018-Jun-16 04:00N 39°16' W 076°35'0 0.0
2018-Jun-16 03:30N 39°16' W 076°35'0 0.0
2018-Jun-16 03:00N 39°16' W 076°35'0 0.0
2018-Jun-16 02:30N 39°16' W 076°35'0 0.0
2018-Jun-16 02:00N 39°16' W 076°35'0 0.0
2018-Jun-16 01:30N 39°16' W 076°35'0 0.0
2018-Jun-16 01:00N 39°16' W 076°35'0 0.0
2018-Jun-16 00:30N 39°16' W 076°35'0 0.0
2018-Jun-16 00:00N 39°16' W 076°35'0 0.0
2018-Jun-15 23:30N 39°16' W 076°35'0 0.0
2018-Jun-15 23:00N 39°16' W 076°35'0 0.0
2018-Jun-15 22:30N 39°16' W 076°35'0 0.0
2018-Jun-15 22:00N 39°16' W 076°35'0 0.0
2018-Jun-15 21:30N 39°16' W 076°35'0 0.0
2018-Jun-15 21:00N 39°16' W 076°35'0 0.0
2018-Jun-15 20:30N 39°16' W 076°35'0 0.0
2018-Jun-15 20:00N 39°16' W 076°35'0 0.0
2018-Jun-15 19:30N 39°16' W 076°35'0 0.0
2018-Jun-15 19:00N 39°16' W 076°35'0 0.0
2018-Jun-15 18:30N 39°16' W 076°35'0 0.0
2018-Jun-15 18:00N 39°16' W 076°35'0 0.0
2018-Jun-15 17:30N 39°16' W 076°35'0 0.0
2018-Jun-15 17:00N 39°16' W 076°35'0 0.0
2018-Jun-15 16:30N 39°16' W 076°35'0 0.0
2018-Jun-15 16:00N 39°16' W 076°35'0 0.0
2018-Jun-15 15:30N 39°16' W 076°35'0 0.0
2018-Jun-15 15:00N 39°16' W 076°35'0 0.0
2018-Jun-15 14:30N 39°16' W 076°35'0 0.0
2018-Jun-15 14:00N 39°16' W 076°35'0 0.0
2018-Jun-15 13:30N 39°16' W 076°35'0 0.0
2018-Jun-15 13:00N 39°16' W 076°35'0 0.0
2018-Jun-15 12:30N 39°16' W 076°35'0 0.0
2018-Jun-15 12:00N 39°16' W 076°35'0 0.0
2018-Jun-15 11:30N 39°16' W 076°35'0 0.0
2018-Jun-15 11:00N 39°16' W 076°35'0 0.0
2018-Jun-15 10:30N 39°16' W 076°35'0 0.0
2018-Jun-15 10:00N 39°16' W 076°35'0 0.0
2018-Jun-15 09:30N 39°16' W 076°35'0 0.0
2018-Jun-15 09:00N 39°16' W 076°35'0 0.0
2018-Jun-15 08:30N 39°16' W 076°35'0 0.0
2018-Jun-15 08:00N 39°16' W 076°35'0 0.0
2018-Jun-15 07:30N 39°16' W 076°35'0 0.0
2018-Jun-15 07:00N 39°16' W 076°35'0 0.0
2018-Jun-15 06:30N 39°16' W 076°35'0 0.0
2018-Jun-15 06:00N 39°16' W 076°35'0 0.0
2018-Jun-15 05:30N 39°16' W 076°35'0 0.0
2018-Jun-15 05:00N 39°16' W 076°35'0 0.0
2018-Jun-15 04:30N 39°16' W 076°35'0 0.0
2018-Jun-15 04:00N 39°16' W 076°35'0 0.0
2018-Jun-15 03:30N 39°16' W 076°35'0 0.0
2018-Jun-15 03:00N 39°16' W 076°35'0 0.0
2018-Jun-15 02:30N 39°16' W 076°35'0 0.0
2018-Jun-15 02:00N 39°16' W 076°35'0 0.0
2018-Jun-15 01:30N 39°16' W 076°35'0 0.0
2018-Jun-15 01:00N 39°16' W 076°35'0 0.0
2018-Jun-15 00:30N 39°16' W 076°35'0 0.0
2018-Jun-15 00:00N 39°16' W 076°35'0 0.0
2018-Jun-14 23:30N 39°16' W 076°35'0 0.0
2018-Jun-14 23:00N 39°16' W 076°35'0 0.0
2018-Jun-14 22:30N 39°16' W 076°35'0 0.0
2018-Jun-14 22:00N 39°16' W 076°35'0 0.0
2018-Jun-14 21:30N 39°16' W 076°35'0 0.0
2018-Jun-14 21:00N 39°16' W 076°35'0 0.0
2018-Jun-14 20:30N 39°16' W 076°35'0 0.0
2018-Jun-14 20:00N 39°16' W 076°35'0 0.0
2018-Jun-14 19:30N 39°16' W 076°35'0 0.0
2018-Jun-14 19:00N 39°16' W 076°35'0 0.0
2018-Jun-14 18:30N 39°16' W 076°35'0 0.0
2018-Jun-14 18:00N 39°16' W 076°35'0 0.0
2018-Jun-14 17:30N 39°16' W 076°35'0 0.0
2018-Jun-14 17:00N 39°16' W 076°35'0 0.0
2018-Jun-14 16:30N 39°16' W 076°35'0 0.0
2018-Jun-14 16:00N 39°16' W 076°35'0 0.0
2018-Jun-14 15:30N 39°16' W 076°35'0 0.0
2018-Jun-14 15:00N 39°16' W 076°35'0 0.0
2018-Jun-14 14:30N 39°16' W 076°35'0 0.0
2018-Jun-14 14:00N 39°16' W 076°35'0 0.0
2018-Jun-14 13:30N 39°16' W 076°35'0 0.0
2018-Jun-14 13:00N 39°16' W 076°35'  

Dump ship's entire track history